Time;durP1;ratioP1;P1;durP2;ratioP2;P2;SDS_P1;SDS_P2;PMS_P1;PMS_P2;Temp;Humidity;BMP_temperature;BMP_pressure;BME280_temperature;BME280_humidity;BME280_pressure;Samples;Min_cycle;Max_cycle;Signal;HPM_P1;HPM_P2
2023/09/25 00:00:49;;;;;;;5.38;3.80;;;12.20;99.90;;;;;;5039508;28;20045;-67
2023/09/25 00:03:16;;;;;;;5.97;3.53;;;12.20;99.90;;;;;;5043604;28;20037;-64
2023/09/25 00:05:47;;;;;;;9.95;4.38;;;12.10;99.90;;;;;;5040148;28;20103;-67
2023/09/25 00:08:14;;;;;;;7.00;3.80;;;12.00;99.90;;;;;;5041644;28;20045;-63
2023/09/25 00:10:41;;;;;;;8.05;4.57;;;11.90;99.90;;;;;;5040102;28;20139;-63
2023/09/25 00:13:09;;;;;;;7.35;4.18;;;11.90;99.90;;;;;;5036909;28;20048;-70
2023/09/25 00:15:44;;;;;;;4.30;3.45;;;11.80;99.90;;;;;;5039934;28;20422;-63
2023/09/25 00:18:13;;;;;;;10.50;4.40;;;11.70;99.90;;;;;;5044667;28;20068;-63
2023/09/25 00:20:41;;;;;;;8.82;4.43;;;11.70;99.90;;;;;;5039729;28;20045;-63
2023/09/25 00:23:08;;;;;;;5.63;4.13;;;11.60;99.90;;;;;;5043950;28;20438;-65
2023/09/25 00:25:35;;;;;;;7.50;4.70;;;11.60;99.90;;;;;;5035563;28;20522;-79
2023/09/25 00:28:02;;;;;;;11.05;4.57;;;11.50;99.90;;;;;;5035848;28;20033;-63
2023/09/25 00:30:29;;;;;;;10.65;4.43;;;11.50;99.90;;;;;;5040268;28;20037;-64
2023/09/25 00:32:56;;;;;;;7.18;4.30;;;11.40;99.90;;;;;;5039324;28;20136;-74
2023/09/25 00:35:23;;;;;;;11.35;4.68;;;11.40;99.90;;;;;;5039900;28;20100;-64
2023/09/25 00:37:50;;;;;;;6.18;3.28;;;11.30;99.90;;;;;;5038583;28;20057;-65
2023/09/25 00:40:18;;;;;;;6.35;3.88;;;11.20;99.90;;;;;;5038142;28;20503;-66
2023/09/25 00:42:48;;;;;;;7.85;3.67;;;11.20;99.90;;;;;;5043153;28;20563;-69
2023/09/25 00:45:16;;;;;;;9.10;5.07;;;11.10;99.90;;;;;;5039078;28;20041;-63
2023/09/25 00:47:43;;;;;;;12.43;3.92;;;11.10;99.90;;;;;;5039309;28;20356;-68
2023/09/25 00:50:11;;;;;;;7.30;4.50;;;11.00;99.90;;;;;;5037223;28;20072;-63
2023/09/25 00:52:41;;;;;;;7.22;3.63;;;11.00;99.90;;;;;;5036029;28;20406;-70
2023/09/25 00:55:16;;;;;;;5.32;3.95;;;10.90;99.90;;;;;;5043481;28;20068;-65
2023/09/25 00:57:47;;;;;;;5.53;3.15;;;10.90;99.90;;;;;;5033251;28;20056;-68
2023/09/25 01:00:15;;;;;;;6.85;3.38;;;10.90;99.90;;;;;;5042361;28;20056;-63
2023/09/25 01:02:42;;;;;;;6.70;3.35;;;10.80;99.90;;;;;;5034620;28;20080;-64
2023/09/25 01:05:10;;;;;;;6.28;3.53;;;10.80;99.90;;;;;;5031683;28;20037;-63
2023/09/25 01:07:38;;;;;;;12.35;5.10;;;10.80;99.90;;;;;;5037687;28;20045;-69
2023/09/25 01:10:18;;;;;;;6.45;3.45;;;10.70;99.90;;;;;;5034812;28;20053;-66
2023/09/25 01:12:48;;;;;;;6.72;3.67;;;10.70;99.90;;;;;;5034637;28;20044;-64
2023/09/25 01:15:15;;;;;;;8.60;5.28;;;10.60;99.90;;;;;;5034688;28;20048;-65
2023/09/25 01:17:43;;;;;;;7.10;3.78;;;10.50;99.90;;;;;;5039949;28;20121;-64
2023/09/25 01:20:15;;;;;;;7.43;4.15;;;10.50;99.90;;;;;;5039337;28;20365;-73
2023/09/25 01:22:47;;;;;;;9.07;3.67;;;10.50;99.90;;;;;;5042333;28;20103;-64
2023/09/25 01:25:15;;;;;;;6.43;4.10;;;10.40;99.90;;;;;;5042315;28;20045;-63
2023/09/25 01:27:44;;;;;;;9.57;5.05;;;10.40;99.90;;;;;;5034278;28;20053;-66
2023/09/25 01:30:13;;;;;;;8.68;4.13;;;10.30;99.90;;;;;;5038552;28;20056;-63
2023/09/25 01:32:44;;;;;;;6.47;3.90;;;10.30;99.90;;;;;;5044275;28;20046;-65
2023/09/25 01:35:26;;;;;;;5.95;3.85;;;10.20;99.90;;;;;;5036580;28;20115;-64
2023/09/25 01:38:00;;;;;;;8.07;4.68;;;10.20;99.90;;;;;;5039178;28;20569;-63
2023/09/25 01:40:28;;;;;;;10.25;5.50;;;10.10;99.90;;;;;;5041610;28;20545;-63
2023/09/25 01:42:55;;;;;;;9.27;5.38;;;10.10;99.90;;;;;;5040854;28;20904;-64
2023/09/25 01:45:23;;;;;;;6.47;4.15;;;10.00;99.90;;;;;;5035910;28;20555;-69
2023/09/25 01:47:53;;;;;;;7.93;3.70;;;10.00;99.90;;;;;;5030307;28;20105;-67
2023/09/25 01:50:23;;;;;;;9.15;4.57;;;10.00;99.90;;;;;;5039855;28;20057;-75
2023/09/25 01:52:56;;;;;;;5.68;3.55;;;9.90;99.90;;;;;;5038026;28;20065;-76
2023/09/25 01:55:23;;;;;;;5.68;3.58;;;9.90;99.90;;;;;;5032287;28;20483;-64
2023/09/25 01:57:50;;;;;;;8.93;4.07;;;9.90;99.90;;;;;;5049425;28;20132;-68
2023/09/25 02:00:18;;;;;;;7.97;3.85;;;9.80;99.90;;;;;;5039853;28;20049;-76
2023/09/25 02:02:46;;;;;;;7.33;4.37;;;9.80;99.90;;;;;;5066047;28;20053;-67
2023/09/25 02:05:14;;;;;;;9.05;4.07;;;9.70;99.90;;;;;;5043213;28;20116;-64
2023/09/25 02:07:42;;;;;;;9.02;3.70;;;9.70;99.90;;;;;;5038154;28;20628;-63
2023/09/25 02:10:09;;;;;;;9.82;3.65;;;9.60;99.90;;;;;;5035243;28;20053;-64
2023/09/25 02:12:36;;;;;;;8.48;4.03;;;9.60;99.90;;;;;;5038688;28;20038;-70
2023/09/25 02:15:05;;;;;;;5.30;3.67;;;9.60;99.90;;;;;;5067759;28;20425;-66
2023/09/25 02:17:33;;;;;;;7.30;3.75;;;9.50;99.90;;;;;;5047043;28;20051;-66
2023/09/25 02:20:13;;;;;;;4.63;3.45;;;9.50;99.90;;;;;;5039139;28;20046;-66
2023/09/25 02:22:40;;;;;;;3.88;3.40;;;9.50;99.90;;;;;;5036181;28;20076;-63
2023/09/25 02:25:08;;;;;;;7.63;3.70;;;9.50;99.90;;;;;;5038395;28;20224;-64
2023/09/25 02:27:36;;;;;;;5.68;3.40;;;9.40;99.90;;;;;;5037918;28;20045;-76
2023/09/25 02:30:05;;;;;;;9.20;4.43;;;9.40;99.90;;;;;;5042290;28;20924;-67
2023/09/25 02:32:32;;;;;;;8.27;3.63;;;9.30;99.90;;;;;;5035688;28;20028;-63
2023/09/25 02:34:59;;;;;;;7.55;3.90;;;9.30;99.90;;;;;;5039612;28;20136;-66
2023/09/25 02:37:26;;;;;;;8.90;3.40;;;9.30;99.90;;;;;;5036608;28;20032;-66
2023/09/25 02:39:53;;;;;;;4.47;2.83;;;9.20;99.90;;;;;;5034551;28;20077;-69
2023/09/25 02:42:20;;;;;;;4.70;2.97;;;9.20;99.90;;;;;;5046377;28;20491;-69
2023/09/25 02:44:47;;;;;;;4.00;3.05;;;9.20;99.90;;;;;;5036328;28;20033;-74
2023/09/25 02:47:14;;;;;;;9.48;5.25;;;9.20;99.90;;;;;;5038171;28;20041;-63
2023/09/25 02:49:40;;;;;;;8.23;3.63;;;9.10;99.90;;;;;;5037118;28;20057;-64
2023/09/25 02:52:07;;;;;;;5.90;4.18;;;9.10;99.90;;;;;;5041102;28;20033;-65
2023/09/25 02:54:34;;;;;;;5.57;3.10;;;9.10;99.90;;;;;;5043915;28;20146;-76
2023/09/25 02:57:01;;;;;;;4.75;3.78;;;9.10;99.90;;;;;;5034175;28;20495;-65
2023/09/25 02:59:28;;;;;;;4.90;2.70;;;9.00;99.90;;;;;;5035271;28;20061;-71
2023/09/25 03:01:55;;;;;;;5.10;4.45;;;9.00;99.90;;;;;;5038286;28;20088;-64
2023/09/25 03:04:22;;;;;;;5.93;2.85;;;9.00;99.90;;;;;;5040937;28;20429;-65
2023/09/25 03:06:49;;;;;;;6.88;3.90;;;9.00;99.90;;;;;;5041235;28;20052;-68
2023/09/25 03:09:16;;;;;;;5.70;4.07;;;9.00;99.90;;;;;;5037305;28;20069;-64
2023/09/25 03:11:44;;;;;;;5.97;3.15;;;8.90;99.90;;;;;;5029480;28;20096;-64
2023/09/25 03:14:11;;;;;;;5.13;2.97;;;8.90;99.90;;;;;;5040188;28;20099;-62
2023/09/25 03:16:40;;;;;;;7.63;4.05;;;8.90;99.90;;;;;;5047761;28;20080;-63
2023/09/25 03:19:07;;;;;;;5.00;3.28;;;8.90;99.90;;;;;;5040548;28;20057;-75
2023/09/25 03:21:34;;;;;;;8.18;3.15;;;8.90;99.90;;;;;;5040935;28;20080;-65
2023/09/25 03:24:01;;;;;;;7.95;3.63;;;8.90;99.90;;;;;;5042132;28;20045;-66
2023/09/25 03:26:28;;;;;;;4.43;3.25;;;8.90;99.90;;;;;;5046203;28;20029;-68
2023/09/25 03:28:55;;;;;;;5.20;3.33;;;8.90;99.90;;;;;;5047508;28;20041;-64
2023/09/25 03:31:22;;;;;;;5.78;3.10;;;8.90;99.90;;;;;;5079462;28;20053;-66
2023/09/25 03:33:50;;;;;;;8.02;3.08;;;8.90;99.90;;;;;;5042600;28;20139;-64
2023/09/25 03:36:17;;;;;;;4.07;3.70;;;8.90;99.90;;;;;;5038351;28;20041;-63
2023/09/25 03:38:44;;;;;;;5.07;3.10;;;8.90;99.90;;;;;;5045253;28;20546;-63
2023/09/25 03:41:11;;;;;;;4.45;3.08;;;8.90;99.90;;;;;;5044385;28;20487;-70
2023/09/25 03:43:38;;;;;;;8.77;3.72;;;8.90;99.90;;;;;;5038262;28;20041;-63
2023/09/25 03:46:06;;;;;;;8.43;4.25;;;8.90;99.90;;;;;;5036688;28;20080;-68
2023/09/25 03:48:32;;;;;;;6.15;4.18;;;8.80;99.90;;;;;;5047063;28;20116;-66
2023/09/25 03:50:59;;;;;;;6.05;3.28;;;8.80;99.90;;;;;;5045227;28;20136;-63
2023/09/25 03:53:26;;;;;;;4.97;3.13;;;8.80;99.90;;;;;;5038757;28;20053;-62
2023/09/25 03:55:54;;;;;;;9.10;3.85;;;8.80;99.90;;;;;;5040071;28;20044;-65
2023/09/25 03:58:21;;;;;;;9.65;3.35;;;8.80;99.90;;;;;;5034063;28;20081;-63
2023/09/25 04:00:48;;;;;;;5.03;2.88;;;8.80;99.90;;;;;;5039742;28;20132;-71
2023/09/25 04:03:15;;;;;;;8.20;3.88;;;8.80;99.90;;;;;;5036397;28;20041;-72
2023/09/25 04:05:42;;;;;;;7.00;3.50;;;8.80;99.90;;;;;;5048936;28;20049;-63
2023/09/25 04:08:09;;;;;;;3.88;3.20;;;8.80;99.90;;;;;;5039606;28;20118;-62
2023/09/25 04:10:37;;;;;;;4.38;3.05;;;8.80;99.90;;;;;;5038288;28;20045;-70
2023/09/25 04:13:04;;;;;;;4.95;3.60;;;8.80;99.90;;;;;;5032091;28;20094;-63
2023/09/25 04:15:31;;;;;;;7.65;3.28;;;8.80;99.90;;;;;;5041669;28;20041;-64
2023/09/25 04:17:58;;;;;;;4.72;3.60;;;8.80;99.90;;;;;;5038066;28;20045;-71
2023/09/25 04:20:25;;;;;;;6.75;3.42;;;8.80;99.90;;;;;;5049940;28;20120;-66
2023/09/25 04:22:53;;;;;;;6.63;3.75;;;8.80;99.90;;;;;;5038983;28;20038;-64
2023/09/25 04:25:20;;;;;;;5.57;3.42;;;8.80;99.90;;;;;;5037342;28;20045;-68
2023/09/25 04:27:52;;;;;;;6.20;3.35;;;8.80;99.90;;;;;;5037993;28;20049;-64
2023/09/25 04:30:20;;;;;;;4.28;3.05;;;8.80;99.90;;;;;;5039351;28;20483;-64
2023/09/25 04:32:49;;;;;;;4.10;2.88;;;8.90;99.90;;;;;;5041543;28;20039;-68
2023/09/25 04:35:17;;;;;;;7.18;4.10;;;8.90;99.90;;;;;;5043623;28;20120;-64
2023/09/25 04:37:45;;;;;;;5.93;3.25;;;8.90;99.90;;;;;;5040477;28;20047;-66
2023/09/25 04:40:23;;;;;;;7.22;3.95;;;8.90;99.90;;;;;;5040642;28;20045;-63
2023/09/25 04:42:51;;;;;;;6.50;3.47;;;8.90;99.90;;;;;;5050732;28;20041;-70
2023/09/25 04:45:19;;;;;;;4.45;3.30;;;8.90;99.90;;;;;;5038874;28;20043;-70
2023/09/25 04:47:47;;;;;;;6.68;3.65;;;8.90;99.90;;;;;;5044101;28;20036;-66
2023/09/25 04:50:15;;;;;;;5.70;3.53;;;8.90;99.90;;;;;;5045099;28;20045;-67
2023/09/25 04:52:44;;;;;;;5.85;4.07;;;9.00;99.90;;;;;;5066794;28;20399;-68
2023/09/25 04:55:12;;;;;;;8.80;4.63;;;9.00;99.90;;;;;;5038634;28;20045;-66
2023/09/25 04:57:44;;;;;;;5.50;4.03;;;9.00;99.90;;;;;;5045068;28;20049;-64
2023/09/25 05:02:47;;;;;;;9.30;5.28;;;9.00;99.90;;;;;;5034368;28;20042;-69
2023/09/25 05:05:15;;;;;;;8.48;3.63;;;9.00;99.90;;;;;;5038486;28;20046;-71
2023/09/25 05:07:44;;;;;;;10.25;3.92;;;9.00;99.90;;;;;;5039740;28;20067;-68
2023/09/25 05:10:12;;;;;;;6.00;3.15;;;9.00;99.90;;;;;;5035389;28;20131;-65
2023/09/25 05:12:40;;;;;;;7.57;3.90;;;9.00;99.90;;;;;;5035694;28;20037;-71
2023/09/25 05:15:07;;;;;;;7.28;3.33;;;9.10;99.90;;;;;;5040058;28;20033;-63
2023/09/25 05:17:38;;;;;;;6.90;3.95;;;9.10;99.90;;;;;;5039812;28;20033;-67
2023/09/25 05:20:11;;;;;;;5.90;4.53;;;9.10;99.90;;;;;;5042003;28;20434;-66
2023/09/25 05:22:39;;;;;;;6.32;4.55;;;9.20;99.90;;;;;;5041763;28;20490;-70
2023/09/25 05:25:07;;;;;;;7.28;4.32;;;9.20;99.90;;;;;;5038452;28;20453;-71
2023/09/25 05:27:39;;;;;;;10.38;4.30;;;9.20;99.90;;;;;;5031206;28;20045;-67
2023/09/25 05:30:09;;;;;;;7.40;4.05;;;9.30;99.90;;;;;;5031574;28;20044;-66
2023/09/25 05:32:37;;;;;;;9.13;4.35;;;9.40;99.90;;;;;;5032406;28;20088;-68
2023/09/25 05:35:05;;;;;;;6.50;4.07;;;9.40;99.90;;;;;;5038611;28;20044;-66
2023/09/25 05:37:33;;;;;;;10.60;4.93;;;9.50;99.90;;;;;;5033559;28;20034;-63
2023/09/25 05:40:13;;;;;;;7.20;4.75;;;9.50;99.90;;;;;;5032103;28;20049;-67
2023/09/25 05:42:44;;;;;;;10.65;3.35;;;9.50;99.90;;;;;;5033955;28;20052;-68
2023/09/25 05:45:13;;;;;;;8.68;3.50;;;9.60;99.90;;;;;;5036584;28;20124;-67
2023/09/25 05:47:40;;;;;;;10.95;3.92;;;9.60;99.90;;;;;;5031085;28;20049;-63
2023/09/25 05:50:07;;;;;;;4.93;3.65;;;9.70;99.90;;;;;;5035466;28;20375;-64
2023/09/25 05:52:35;;;;;;;9.32;3.80;;;9.70;99.90;;;;;;5032943;28;20045;-69
2023/09/25 05:55:04;;;;;;;6.68;3.03;;;9.70;99.90;;;;;;5034624;28;20172;-64
2023/09/25 05:57:31;;;;;;;10.50;5.03;;;9.80;99.90;;;;;;5037093;28;20044;-72
2023/09/25 06:00:08;;;;;;;7.57;3.75;;;9.90;99.90;;;;;;5032895;28;20045;-66
2023/09/25 06:02:38;;;;;;;7.80;3.83;;;10.00;99.90;;;;;;5035816;28;20041;-71
2023/09/25 06:05:06;;;;;;;5.82;3.45;;;10.10;99.90;;;;;;5034537;28;20056;-64
2023/09/25 06:07:33;;;;;;;7.28;4.25;;;10.20;99.90;;;;;;5036838;28;20044;-69
2023/09/25 06:10:04;;;;;;;3.80;2.80;;;10.20;99.90;;;;;;5032311;28;20487;-67
2023/09/25 06:12:31;;;;;;;7.38;4.32;;;10.30;99.90;;;;;;5033270;28;20056;-71
2023/09/25 06:14:58;;;;;;;7.32;2.90;;;10.30;99.90;;;;;;5031627;28;20068;-65
2023/09/25 06:17:28;;;;;;;6.10;3.33;;;10.40;99.90;;;;;;5032117;28;20478;-69
2023/09/25 06:19:56;;;;;;;5.00;2.78;;;10.40;99.90;;;;;;5040779;28;20168;-69
2023/09/25 06:22:23;;;;;;;5.68;2.65;;;10.50;99.90;;;;;;5036900;28;20043;-64
2023/09/25 06:24:50;;;;;;;8.48;3.33;;;10.60;99.90;;;;;;5040174;28;20467;-68
2023/09/25 06:27:17;;;;;;;9.65;3.53;;;10.60;99.90;;;;;;5035016;28;20053;-76
2023/09/25 06:29:44;;;;;;;6.93;3.45;;;10.70;99.90;;;;;;5038057;28;20049;-63
2023/09/25 06:32:11;;;;;;;4.80;3.03;;;10.90;99.90;;;;;;5033829;28;20050;-64
2023/09/25 06:34:41;;;;;;;4.30;3.70;;;10.90;99.90;;;;;;5034923;28;20408;-67
2023/09/25 06:37:09;;;;;;;5.47;2.92;;;11.00;99.90;;;;;;5038367;28;20041;-63
2023/09/25 06:39:36;;;;;;;8.85;3.10;;;11.10;99.90;;;;;;5030039;28;20574;-66
2023/09/25 06:42:03;;;;;;;9.25;3.47;;;11.20;99.90;;;;;;5031192;28;20037;-64
2023/09/25 06:44:30;;;;;;;6.80;4.43;;;11.40;99.90;;;;;;5044809;28;20437;-66
2023/09/25 06:46:57;;;;;;;5.18;2.83;;;11.40;99.90;;;;;;5033059;28;20138;-69
2023/09/25 06:49:24;;;;;;;4.55;3.15;;;11.50;99.90;;;;;;5036759;28;20042;-66
2023/09/25 06:51:51;;;;;;;4.68;3.38;;;11.60;99.90;;;;;;5042690;28;20168;-70
2023/09/25 06:54:18;;;;;;;4.85;2.80;;;11.70;99.90;;;;;;5041635;28;20626;-68
2023/09/25 06:56:45;;;;;;;6.60;4.13;;;11.80;99.90;;;;;;5037935;28;20133;-70
2023/09/25 06:59:12;;;;;;;5.70;3.05;;;11.90;99.90;;;;;;5035162;28;20056;-67
2023/09/25 07:01:39;;;;;;;3.67;3.10;;;12.10;99.90;;;;;;5048913;28;20041;-63
2023/09/25 07:04:06;;;;;;;4.03;2.85;;;12.20;99.90;;;;;;5046694;28;20043;-66
2023/09/25 07:06:33;;;;;;;7.20;3.63;;;12.30;99.90;;;;;;5045795;28;20048;-64
2023/09/25 07:09:00;;;;;;;3.85;2.20;;;12.40;99.90;;;;;;5037521;28;20442;-63
2023/09/25 07:11:27;;;;;;;5.88;2.53;;;12.40;99.90;;;;;;5037116;28;20488;-69
2023/09/25 07:13:54;;;;;;;4.97;3.20;;;12.50;99.90;;;;;;5037232;28;20448;-64
2023/09/25 07:16:21;;;;;;;4.50;3.50;;;12.60;99.90;;;;;;5038131;28;20056;-67
2023/09/25 07:18:49;;;;;;;4.60;2.25;;;12.70;99.90;;;;;;5038833;28;20065;-77
2023/09/25 07:21:16;;;;;;;3.80;2.33;;;12.90;99.90;;;;;;5035842;28;20497;-70
2023/09/25 07:23:43;;;;;;;5.03;2.35;;;13.00;99.90;;;;;;5034689;28;20044;-64
2023/09/25 07:26:11;;;;;;;5.20;1.95;;;13.00;99.90;;;;;;5041681;28;20426;-68
2023/09/25 07:28:38;;;;;;;3.95;2.80;;;13.10;99.90;;;;;;5035586;28;20148;-65
2023/09/25 07:31:05;;;;;;;7.22;2.85;;;13.10;99.90;;;;;;5038134;28;20056;-69
2023/09/25 07:33:34;;;;;;;3.13;2.70;;;13.20;99.90;;;;;;5037484;28;20098;-63
2023/09/25 07:36:03;;;;;;;4.50;2.03;;;13.30;99.90;;;;;;5038528;28;20507;-63
2023/09/25 07:38:33;;;;;;;6.20;2.83;;;13.50;99.90;;;;;;5034375;28;20045;-67
2023/09/25 07:41:00;;;;;;;5.65;2.95;;;13.60;99.90;;;;;;5036294;28;20077;-66
2023/09/25 07:43:29;;;;;;;4.32;2.30;;;13.70;99.90;;;;;;5040056;28;20114;-69
2023/09/25 07:46:01;;;;;;;4.15;3.72;;;13.80;99.90;;;;;;5038452;28;20036;-71
2023/09/25 07:48:31;;;;;;;6.03;2.40;;;14.00;99.90;;;;;;5035251;28;20135;-63
2023/09/25 07:50:58;;;;;;;3.88;2.00;;;14.00;99.90;;;;;;5039819;28;20049;-64
2023/09/25 07:53:28;;;;;;;4.88;2.13;;;14.20;99.90;;;;;;5038780;28;20037;-66
2023/09/25 07:55:55;;;;;;;3.85;2.15;;;14.20;99.90;;;;;;5037767;28;20069;-66
2023/09/25 07:58:22;;;;;;;7.22;2.63;;;14.30;99.90;;;;;;5039755;28;20047;-67
2023/09/25 08:00:49;;;;;;;2.20;1.73;;;14.40;99.90;;;;;;5035580;28;20045;-74
2023/09/25 08:03:22;;;;;;;3.63;1.90;;;14.40;99.90;;;;;;5040372;28;20690;-64
2023/09/25 08:05:52;;;;;;;3.70;2.42;;;14.50;99.90;;;;;;5038089;28;20041;-68
2023/09/25 08:08:19;;;;;;;5.25;2.05;;;14.70;99.90;;;;;;5035467;28;20058;-65
2023/09/25 08:10:47;;;;;;;4.55;2.50;;;14.80;99.90;;;;;;5038329;28;20049;-66
2023/09/25 08:13:16;;;;;;;4.10;1.90;;;14.80;99.90;;;;;;5036690;28;20053;-66
2023/09/25 08:15:43;;;;;;;5.95;1.85;;;14.90;99.90;;;;;;5040554;28;20057;-69
2023/09/25 08:18:10;;;;;;;2.95;1.77;;;15.00;99.90;;;;;;5036035;28;20045;-66
2023/09/25 08:20:37;;;;;;;3.97;1.50;;;15.10;99.90;;;;;;5034368;28;20426;-69
2023/09/25 08:23:04;;;;;;;5.18;2.00;;;15.30;99.90;;;;;;5033391;28;20467;-66
2023/09/25 08:25:30;;;;;;;7.40;1.73;;;15.30;99.90;;;;;;5034670;28;20049;-63
2023/09/25 08:27:58;;;;;;;3.95;1.95;;;15.50;99.90;;;;;;5031653;28;20099;-70
2023/09/25 08:30:25;;;;;;;2.80;1.80;;;15.60;99.90;;;;;;5033915;28;20072;-63
2023/09/25 08:32:53;;;;;;;4.20;2.50;;;15.60;99.90;;;;;;5031272;28;20044;-66
2023/09/25 08:35:21;;;;;;;5.15;2.08;;;15.60;99.90;;;;;;5034986;28;20059;-67
2023/09/25 08:37:48;;;;;;;3.33;1.52;;;15.70;99.90;;;;;;5027724;28;20106;-70
2023/09/25 08:40:15;;;;;;;1.92;1.40;;;15.80;99.90;;;;;;5034707;28;20049;-65
2023/09/25 08:42:42;;;;;;;3.15;1.40;;;15.90;99.90;;;;;;5035773;28;20045;-66
2023/09/25 08:45:10;;;;;;;4.40;1.80;;;15.90;99.90;;;;;;5030619;28;20567;-67
2023/09/25 08:47:40;;;;;;;2.95;1.23;;;15.90;99.90;;;;;;5033623;28;20057;-66
2023/09/25 08:50:08;;;;;;;4.22;1.70;;;16.00;99.90;;;;;;5035358;28;20048;-65
2023/09/25 08:52:35;;;;;;;3.67;1.30;;;16.10;99.90;;;;;;5032473;28;20051;-73
2023/09/25 08:55:04;;;;;;;3.22;1.20;;;16.20;99.90;;;;;;5037212;28;20045;-64
2023/09/25 08:57:31;;;;;;;4.30;1.60;;;16.20;99.90;;;;;;5032046;28;20041;-63
2023/09/25 09:00:11;;;;;;;2.03;1.33;;;16.20;99.90;;;;;;5032125;28;20578;-70
2023/09/25 09:02:40;;;;;;;5.28;1.58;;;16.20;99.90;;;;;;5030990;28;20083;-67
2023/09/25 09:05:11;;;;;;;3.47;1.15;;;16.10;99.90;;;;;;5032247;28;20168;-68
2023/09/25 09:07:54;;;;;;;4.57;1.20;;;16.10;99.90;;;;;;5033165;28;20041;-73
2023/09/25 09:10:21;;;;;;;4.20;1.67;;;15.90;99.90;;;;;;5032642;28;20046;-66
2023/09/25 09:12:55;;;;;;;3.45;1.20;;;15.90;99.90;;;;;;5037035;28;20107;-68
2023/09/25 09:15:27;;;;;;;1.90;1.13;;;15.90;99.90;;;;;;5034542;28;20037;-65
2023/09/25 09:17:55;;;;;;;2.20;1.13;;;16.00;99.90;;;;;;5031985;28;20041;-68
2023/09/25 09:20:36;;;;;;;3.45;1.55;;;16.10;99.90;;;;;;5034059;28;20612;-67
2023/09/25 09:23:05;;;;;;;1.33;1.00;;;16.10;99.90;;;;;;5034307;28;20132;-64
2023/09/25 09:25:33;;;;;;;2.80;1.10;;;16.20;99.90;;;;;;5036657;28;20041;-68
2023/09/25 09:28:03;;;;;;;4.53;2.22;;;16.30;99.90;;;;;;5034242;28;20391;-68
2023/09/25 09:30:30;;;;;;;3.22;2.25;;;16.40;99.90;;;;;;5031523;28;20041;-70
2023/09/25 09:32:58;;;;;;;3.42;1.38;;;16.50;99.90;;;;;;5035103;28;20151;-63
2023/09/25 09:35:26;;;;;;;5.05;1.45;;;16.50;99.90;;;;;;5034190;28;20036;-68
2023/09/25 09:37:55;;;;;;;2.10;1.42;;;16.50;99.90;;;;;;5031034;28;20055;-65
2023/09/25 09:40:24;;;;;;;2.13;1.25;;;16.50;99.90;;;;;;5032471;28;20404;-64
2023/09/25 09:42:54;;;;;;;4.15;1.23;;;16.50;99.90;;;;;;5031657;28;20037;-71
2023/09/25 09:45:22;;;;;;;3.63;1.13;;;16.40;99.90;;;;;;5034273;28;20131;-66
2023/09/25 09:47:51;;;;;;;2.58;1.10;;;16.40;99.90;;;;;;5033264;28;20045;-67
2023/09/25 09:50:22;;;;;;;4.35;1.30;;;16.50;99.90;;;;;;5035120;28;20041;-66
2023/09/25 09:52:50;;;;;;;3.25;0.90;;;16.50;99.90;;;;;;5033437;28;20036;-66
2023/09/25 09:55:21;;;;;;;3.28;0.90;;;16.50;99.90;;;;;;5031866;28;20119;-74
2023/09/25 09:57:54;;;;;;;3.40;1.40;;;16.50;99.90;;;;;;5035283;28;20096;-70
2023/09/25 10:00:21;;;;;;;6.25;2.00;;;16.50;99.90;;;;;;5033764;28;20057;-69
2023/09/25 10:02:48;;;;;;;2.17;1.10;;;16.50;99.90;;;;;;5034265;28;20116;-67
2023/09/25 10:05:17;;;;;;;4.00;1.23;;;16.40;99.90;;;;;;5033977;28;20994;-64
2023/09/25 10:08:05;;;;;;;0.80;0.77;;;16.50;99.90;;;;;;5031310;28;20545;-64
2023/09/25 10:10:35;;;;;;;4.30;2.25;;;16.60;99.90;;;;;;5031883;28;20243;-67
2023/09/25 10:13:08;;;;;;;0.93;0.60;;;16.70;99.90;;;;;;5036068;28;20041;-71
2023/09/25 10:15:36;;;;;;;2.90;1.50;;;16.80;99.90;;;;;;5032374;28;20033;-64
2023/09/25 10:18:05;;;;;;;1.52;0.93;;;16.80;99.90;;;;;;5033421;28;20372;-64
2023/09/25 10:20:36;;;;;;;2.05;1.02;;;16.80;99.90;;;;;;5034341;28;20124;-66
2023/09/25 10:23:10;;;;;;;2.28;1.00;;;16.90;99.90;;;;;;5032024;28;20041;-68
2023/09/25 10:25:52;;;;;;;3.97;1.45;;;16.90;99.90;;;;;;5045380;28;20029;-68
2023/09/25 10:28:26;;;;;;;1.13;0.95;;;17.00;99.90;;;;;;5042805;28;20041;-68
2023/09/25 10:30:57;;;;;;;1.50;0.93;;;17.00;99.90;;;;;;5042781;28;20115;-71
2023/09/25 10:33:28;;;;;;;1.95;1.20;;;17.10;99.90;;;;;;5039152;28;20037;-64
2023/09/25 10:36:04;;;;;;;2.70;1.42;;;17.10;99.90;;;;;;5038040;28;20037;-64
2023/09/25 10:38:34;;;;;;;1.73;0.88;;;17.00;99.90;;;;;;5037229;28;20057;-65
2023/09/25 10:41:07;;;;;;;2.13;1.33;;;17.00;99.90;;;;;;5038120;28;20040;-65
2023/09/25 10:43:35;;;;;;;2.45;1.30;;;17.10;99.90;;;;;;5034008;28;20041;-63
2023/09/25 10:46:03;;;;;;;2.75;1.15;;;17.10;99.90;;;;;;5037025;28;20411;-69
2023/09/25 10:48:32;;;;;;;1.48;0.95;;;17.20;99.90;;;;;;5035916;28;20052;-69
2023/09/25 10:51:00;;;;;;;1.40;0.85;;;17.30;99.90;;;;;;5036078;28;20041;-69
2023/09/25 10:53:26;;;;;;;1.83;1.15;;;17.40;99.90;;;;;;5036587;28;20487;-64
2023/09/25 10:55:54;;;;;;;6.63;1.25;;;17.50;99.90;;;;;;5038075;28;20098;-66
2023/09/25 10:58:21;;;;;;;3.92;1.30;;;17.40;99.90;;;;;;5034457;28;20380;-66
2023/09/25 11:00:52;;;;;;;2.90;1.08;;;17.40;99.90;;;;;;5036992;28;20140;-66
2023/09/25 11:03:19;;;;;;;3.88;1.30;;;17.30;99.90;;;;;;5034896;28;20095;-64
2023/09/25 11:05:49;;;;;;;3.88;1.10;;;17.30;99.90;;;;;;5035994;28;20475;-72
2023/09/25 11:08:16;;;;;;;3.08;1.45;;;17.20;99.90;;;;;;5031074;28;20123;-74
2023/09/25 11:10:45;;;;;;;2.90;1.35;;;17.20;99.90;;;;;;5038744;28;20386;-63
2023/09/25 11:13:12;;;;;;;2.53;1.00;;;17.30;99.90;;;;;;5041012;28;20068;-71
2023/09/25 11:15:40;;;;;;;2.00;1.08;;;17.30;99.90;;;;;;5036274;28;20041;-64
2023/09/25 11:18:09;;;;;;;3.45;1.10;;;17.40;99.90;;;;;;5038041;28;20544;-67
2023/09/25 11:20:41;;;;;;;1.98;1.38;;;17.30;99.90;;;;;;5034702;28;20141;-75
2023/09/25 11:23:09;;;;;;;1.88;1.13;;;17.30;99.90;;;;;;5038428;28;20045;-68
2023/09/25 11:25:42;;;;;;;3.40;1.30;;;17.30;99.90;;;;;;5036523;28;20040;-64
2023/09/25 11:28:17;;;;;;;2.47;1.02;;;17.50;99.90;;;;;;5040564;28;20052;-69
2023/09/25 11:30:47;;;;;;;0.98;0.80;;;17.70;99.90;;;;;;5040778;28;20037;-64
2023/09/25 11:33:18;;;;;;;4.25;1.10;;;17.70;99.90;;;;;;5038673;28;20447;-65
2023/09/25 11:35:49;;;;;;;1.83;1.27;;;17.70;99.90;;;;;;5036735;28;20073;-65
2023/09/25 11:38:23;;;;;;;5.55;1.63;;;17.70;99.90;;;;;;5035659;28;20052;-63
2023/09/25 11:40:52;;;;;;;3.22;1.40;;;17.60;99.90;;;;;;5037786;28;20052;-68
2023/09/25 11:43:20;;;;;;;3.90;1.05;;;17.60;99.90;;;;;;5032169;28;20643;-66
2023/09/25 11:45:48;;;;;;;0.75;0.52;;;17.80;99.90;;;;;;5038890;28;20064;-73
2023/09/25 11:48:18;;;;;;;1.38;1.27;;;17.90;99.90;;;;;;5035579;28;20045;-65
2023/09/25 11:50:45;;;;;;;1.05;0.85;;;17.90;99.90;;;;;;5037785;28;20053;-67
2023/09/25 11:53:12;;;;;;;4.47;0.90;;;17.80;99.90;;;;;;5036517;28;20037;-74
2023/09/25 11:55:39;;;;;;;1.92;1.02;;;17.90;99.90;;;;;;5035032;28;20127;-69
2023/09/25 11:58:08;;;;;;;2.03;0.88;;;17.90;99.90;;;;;;5040858;28;20049;-64
2023/09/25 12:00:36;;;;;;;1.65;0.95;;;17.90;99.90;;;;;;5039114;28;20033;-64
2023/09/25 12:03:07;;;;;;;4.45;1.25;;;17.90;99.90;;;;;;5037797;28;20779;-69
2023/09/25 12:05:36;;;;;;;1.45;0.70;;;17.90;99.90;;;;;;5041170;28;20059;-63
2023/09/25 12:08:06;;;;;;;3.38;1.45;;;17.90;99.90;;;;;;5038493;28;20377;-64
2023/09/25 12:10:39;;;;;;;1.35;0.93;;;17.90;99.90;;;;;;5034578;28;20567;-63
2023/09/25 12:13:07;;;;;;;2.45;0.95;;;17.90;99.90;;;;;;5037332;28;20072;-72
2023/09/25 12:15:35;;;;;;;2.88;1.10;;;17.90;99.90;;;;;;5034857;28;20073;-66
2023/09/25 12:18:03;;;;;;;2.60;1.17;;;17.90;99.90;;;;;;5036500;28;20052;-71
2023/09/25 12:20:30;;;;;;;3.65;1.23;;;17.80;99.90;;;;;;5037038;28;20605;-65
2023/09/25 12:22:57;;;;;;;1.63;0.85;;;17.80;99.90;;;;;;5035128;28;20046;-63
2023/09/25 12:25:24;;;;;;;2.85;0.90;;;17.80;99.90;;;;;;5036993;28;20044;-67
2023/09/25 12:27:52;;;;;;;2.95;1.00;;;17.70;99.90;;;;;;5029768;28;20033;-70
2023/09/25 12:30:19;;;;;;;3.05;1.02;;;17.60;99.90;;;;;;5033858;28;20045;-66
2023/09/25 12:32:48;;;;;;;1.30;0.73;;;17.70;99.90;;;;;;5034196;28;20549;-64
2023/09/25 12:35:16;;;;;;;1.10;0.73;;;17.70;99.90;;;;;;5033747;28;20043;-69
2023/09/25 12:37:47;;;;;;;2.63;1.30;;;17.70;99.90;;;;;;5034795;28;20132;-68
2023/09/25 12:40:18;;;;;;;1.30;0.70;;;17.70;99.90;;;;;;5035867;28;20273;-66
2023/09/25 12:42:46;;;;;;;3.15;0.80;;;17.70;99.90;;;;;;5034365;28;20104;-64
2023/09/25 12:45:22;;;;;;;2.78;1.27;;;17.70;99.90;;;;;;5037874;28;20163;-65
2023/09/25 12:47:50;;;;;;;2.83;1.67;;;17.70;99.90;;;;;;5032824;28;20068;-71
2023/09/25 12:50:17;;;;;;;2.20;1.27;;;17.70;99.90;;;;;;5034660;28;20042;-65
2023/09/25 12:52:46;;;;;;;3.65;1.00;;;17.70;99.90;;;;;;5038660;28;20045;-63
2023/09/25 12:55:13;;;;;;;0.75;0.68;;;17.60;99.90;;;;;;5033700;28;20059;-73
2023/09/25 12:57:40;;;;;;;3.63;0.93;;;17.60;99.90;;;;;;5035762;28;20151;-70
2023/09/25 13:00:08;;;;;;;3.72;1.65;;;17.60;99.90;;;;;;5033786;28;20041;-64